Time;durP1;ratioP1;P1;durP2;ratioP2;P2;SDS_P1;SDS_P2;PMS_P1;PMS_P2;Temp;Humidity;BMP_temperature;BMP_pressure;BME280_temperature;BME280_humidity;BME280_pressure;Samples;Min_cycle;Max_cycle;Signal;HPM_P1;HPM_P2
2021/06/24 00:01:02;;;;;;;;;;;19.30;98.30;;;;;;2086351;28;1274;-60
2021/06/24 00:02:22;;;;;;;;;;;19.30;98.30;;;;;;2091806;28;728;-59
2021/06/24 00:03:41;;;;;;;;;;;19.30;98.30;;;;;;2094904;28;718;-60
2021/06/24 00:05:00;;;;;;;;;;;19.20;98.60;;;;;;2098509;28;704;-60
2021/06/24 00:06:19;;;;;;;;;;;19.20;98.30;;;;;;2098391;28;771;-60
2021/06/24 00:07:38;;;;;;;;;;;19.30;98.30;;;;;;2093172;28;1280;-59
2021/06/24 00:08:58;;;;;;;;;;;19.20;98.30;;;;;;2096485;28;1965;-60
2021/06/24 00:10:17;;;;;;;;;;;19.30;98.30;;;;;;2098939;28;734;-59
2021/06/24 00:11:36;;;;;;;;;;;19.20;98.30;;;;;;2089839;28;1361;-59
2021/06/24 00:12:55;;;;;;;;;;;19.20;98.30;;;;;;2091914;28;817;-59
2021/06/24 00:14:15;;;;;;;;;;;19.20;98.20;;;;;;2086147;28;764;-60
2021/06/24 00:15:34;;;;;;;;;;;19.20;98.20;;;;;;2091615;28;910;-60
2021/06/24 00:16:53;;;;;;;;;;;19.20;98.30;;;;;;2101796;28;1700;-60
2021/06/24 00:18:12;;;;;;;;;;;19.20;98.30;;;;;;2095326;28;1906;-59
2021/06/24 00:19:32;;;;;;;;;;;19.20;98.30;;;;;;2087104;28;1163;-59
2021/06/24 00:20:51;;;;;;;;;;;19.20;98.60;;;;;;2107165;28;830;-60
2021/06/24 00:22:10;;;;;;;;;;;19.20;98.30;;;;;;2106750;28;736;-60
2021/06/24 00:23:29;;;;;;;;;;;19.20;98.60;;;;;;2094979;28;805;-59
2021/06/24 00:24:48;;;;;;;;;;;19.20;98.30;;;;;;2086170;28;719;-59
2021/06/24 00:26:08;;;;;;;;;;;19.20;98.30;;;;;;2086717;28;764;-59
2021/06/24 00:27:27;;;;;;;;;;;19.20;98.20;;;;;;2096854;28;1696;-60
2021/06/24 00:28:46;;;;;;;;;;;19.20;98.30;;;;;;2098676;28;704;-59
2021/06/24 00:30:06;;;;;;;;;;;19.20;98.30;;;;;;2089855;28;737;-59
2021/06/24 00:31:25;;;;;;;;;;;19.20;98.30;;;;;;2094941;28;1381;-60
2021/06/24 00:32:44;;;;;;;;;;;19.20;98.30;;;;;;2098049;28;729;-60
2021/06/24 00:34:03;;;;;;;;;;;19.20;98.30;;;;;;2089354;28;807;-59
2021/06/24 00:35:23;;;;;;;;;;;19.20;98.30;;;;;;2095368;28;772;-59
2021/06/24 00:36:42;;;;;;;;;;;19.20;98.30;;;;;;2097752;28;1697;-62
2021/06/24 00:38:04;;;;;;;;;;;19.20;98.30;;;;;;2094883;28;1979;-60
2021/06/24 00:39:23;;;;;;;;;;;19.20;98.30;;;;;;2095082;28;1502;-60
2021/06/24 00:40:42;;;;;;;;;;;19.20;98.30;;;;;;2098212;28;783;-60
2021/06/24 00:42:02;;;;;;;;;;;19.20;98.30;;;;;;2088500;28;726;-60
2021/06/24 00:43:25;;;;;;;;;;;19.20;98.20;;;;;;2083488;28;745;-60
2021/06/24 00:44:45;;;;;;;;;;;19.20;98.20;;;;;;2083923;28;796;-59
2021/06/24 00:46:04;;;;;;;;;;;19.20;98.20;;;;;;2092177;28;743;-59
2021/06/24 00:47:23;;;;;;;;;;;19.20;98.20;;;;;;2078623;28;969;-60
2021/06/24 00:48:42;;;;;;;;;;;19.20;98.20;;;;;;2087968;28;904;-59
2021/06/24 00:50:03;;;;;;;;;;;19.20;98.20;;;;;;2099621;28;1130;-59
2021/06/24 00:51:22;;;;;;;;;;;19.20;98.20;;;;;;2094954;28;1439;-60
2021/06/24 00:52:42;;;;;;;;;;;19.20;98.20;;;;;;2094748;28;726;-60
2021/06/24 00:54:01;;;;;;;;;;;19.20;98.20;;;;;;2089127;28;1958;-59
2021/06/24 00:55:39;;;;;;;;;;;19.20;98.30;;;;;;2091596;28;736;-59
2021/06/24 00:56:59;;;;;;;;;;;19.20;98.20;;;;;;2097431;28;2000;-61
2021/06/24 00:58:20;;;;;;;;;;;19.20;98.20;;;;;;2089415;28;1927;-60
2021/06/24 00:59:40;;;;;;;;;;;19.20;98.30;;;;;;2078670;28;722;-60
2021/06/24 01:00:59;;;;;;;;;;;19.20;98.50;;;;;;2091616;28;1326;-60
2021/06/24 01:02:20;;;;;;;;;;;19.20;98.20;;;;;;2094850;28;721;-59
2021/06/24 01:03:40;;;;;;;;;;;19.20;98.20;;;;;;2097544;28;760;-60
2021/06/24 01:04:59;;;;;;;;;;;19.20;98.20;;;;;;2094167;28;1519;-60
2021/06/24 01:06:18;;;;;;;;;;;19.20;98.20;;;;;;2094494;28;1928;-59
2021/06/24 01:07:38;;;;;;;;;;;19.20;98.20;;;;;;2089776;28;731;-60
2021/06/24 01:09:15;;;;;;;;;;;19.20;98.20;;;;;;2094448;28;1967;-60
2021/06/24 01:10:34;;;;;;;;;;;19.20;98.20;;;;;;2094615;28;766;-60
2021/06/24 01:11:54;;;;;;;;;;;19.20;98.20;;;;;;2094354;28;1338;-60
2021/06/24 01:13:13;;;;;;;;;;;19.20;98.50;;;;;;2077989;28;722;-60
2021/06/24 01:14:32;;;;;;;;;;;19.20;98.20;;;;;;2087571;28;798;-60
2021/06/24 01:15:52;;;;;;;;;;;19.20;98.20;;;;;;2086010;28;882;-60
2021/06/24 01:17:11;;;;;;;;;;;19.20;98.10;;;;;;2082504;28;1728;-60
2021/06/24 01:18:30;;;;;;;;;;;19.20;98.20;;;;;;2091810;28;1971;-60
2021/06/24 01:19:53;;;;;;;;;;;19.20;98.20;;;;;;2100751;28;1088;-59
2021/06/24 01:21:12;;;;;;;;;;;19.20;98.20;;;;;;2094736;28;1431;-59
2021/06/24 01:22:32;;;;;;;;;;;19.20;98.20;;;;;;2089338;28;760;-59
2021/06/24 01:23:52;;;;;;;;;;;19.20;98.20;;;;;;2091020;28;1666;-60
2021/06/24 01:25:12;;;;;;;;;;;19.20;98.50;;;;;;2098146;28;759;-60
2021/06/24 01:26:32;;;;;;;;;;;19.20;98.20;;;;;;2097249;28;1657;-61
2021/06/24 01:27:58;;;;;;;;;;;19.20;98.30;;;;;;2094174;28;758;-60
2021/06/24 01:29:17;;;;;;;;;;;19.20;98.20;;;;;;2095477;28;753;-60
2021/06/24 01:30:37;;;;;;;;;;;19.20;98.20;;;;;;2094389;28;759;-60
2021/06/24 01:31:56;;;;;;;;;;;19.20;98.20;;;;;;2085746;28;1290;-60
2021/06/24 01:33:15;;;;;;;;;;;19.20;98.50;;;;;;2094812;28;761;-60
2021/06/24 01:34:38;;;;;;;;;;;19.20;98.40;;;;;;2088585;28;777;-60
2021/06/24 01:35:58;;;;;;;;;;;19.20;98.10;;;;;;2091378;28;728;-60
2021/06/24 01:37:17;;;;;;;;;;;19.20;98.10;;;;;;2091592;28;814;-60
2021/06/24 01:38:37;;;;;;;;;;;19.20;98.10;;;;;;2097851;28;1012;-62
2021/06/24 01:40:04;;;;;;;;;;;19.20;98.10;;;;;;2084956;28;970;-60
2021/06/24 01:41:23;;;;;;;;;;;19.20;98.20;;;;;;2087243;28;1385;-60
2021/06/24 01:42:43;;;;;;;;;;;19.10;98.10;;;;;;2093383;28;741;-60
2021/06/24 01:44:03;;;;;;;;;;;19.20;98.20;;;;;;2097309;28;732;-60
2021/06/24 01:45:22;;;;;;;;;;;19.20;98.20;;;;;;2097634;28;784;-60
2021/06/24 01:46:41;;;;;;;;;;;19.20;98.10;;;;;;2088838;28;1726;-60
2021/06/24 01:48:01;;;;;;;;;;;19.10;98.00;;;;;;2086237;28;920;-60
2021/06/24 01:49:25;;;;;;;;;;;19.10;98.10;;;;;;2093567;28;1527;-60
2021/06/24 01:50:44;;;;;;;;;;;19.10;98.10;;;;;;2089525;28;709;-60
2021/06/24 01:52:04;;;;;;;;;;;19.10;98.00;;;;;;2089411;28;728;-60
2021/06/24 01:53:23;;;;;;;;;;;19.10;98.00;;;;;;2089371;28;754;-60
2021/06/24 01:54:46;;;;;;;;;;;19.20;98.00;;;;;;2085278;28;735;-60
2021/06/24 01:56:05;;;;;;;;;;;19.20;98.20;;;;;;2091745;28;1553;-60
2021/06/24 01:57:27;;;;;;;;;;;19.10;98.00;;;;;;2080884;28;713;-60
2021/06/24 01:58:52;;;;;;;;;;;19.10;98.10;;;;;;2087059;28;755;-60
2021/06/24 02:00:34;;;;;;;;;;;19.20;98.20;;;;;;2097815;28;718;-60
2021/06/24 02:02:05;;;;;;;;;;;19.10;98.40;;;;;;2088929;28;763;-60
2021/06/24 02:03:45;;;;;;;;;;;19.20;98.20;;;;;;2096702;28;751;-59
2021/06/24 02:05:05;;;;;;;;;;;19.10;98.40;;;;;;2088516;28;2058;-60
2021/06/24 02:06:28;;;;;;;;;;;19.10;98.10;;;;;;2083810;28;1776;-60
2021/06/24 02:07:57;;;;;;;;;;;19.10;98.10;;;;;;2087454;28;973;-60
2021/06/24 02:09:27;;;;;;;;;;;19.10;98.10;;;;;;2087298;28;711;-60
2021/06/24 02:10:46;;;;;;;;;;;19.10;98.40;;;;;;2080945;28;714;-60
2021/06/24 02:12:06;;;;;;;;;;;19.10;98.10;;;;;;2090808;28;803;-60
2021/06/24 02:13:36;;;;;;;;;;;19.10;98.10;;;;;;2090603;28;942;-60
2021/06/24 02:15:00;;;;;;;;;;;19.10;98.40;;;;;;2089268;28;820;-61
2021/06/24 02:16:19;;;;;;;;;;;19.10;98.00;;;;;;2092805;28;1675;-60
2021/06/24 02:17:39;;;;;;;;;;;19.10;98.00;;;;;;2080765;28;1959;-60
2021/06/24 02:19:00;;;;;;;;;;;19.10;98.00;;;;;;2093322;28;915;-60
2021/06/24 02:20:38;;;;;;;;;;;19.10;98.00;;;;;;2088388;28;792;-60
2021/06/24 02:22:16;;;;;;;;;;;19.10;98.30;;;;;;2089037;28;727;-60
2021/06/24 02:23:47;;;;;;;;;;;19.10;98.10;;;;;;2088907;28;748;-60
2021/06/24 02:25:24;;;;;;;;;;;19.10;98.30;;;;;;2088173;28;858;-60
2021/06/24 02:27:10;;;;;;;;;;;19.10;98.00;;;;;;2085240;28;1403;-60
2021/06/24 02:28:55;;;;;;;;;;;19.10;98.00;;;;;;2078164;28;1058;-60
2021/06/24 02:30:21;;;;;;;;;;;19.10;98.00;;;;;;2088928;28;726;-61
2021/06/24 02:31:40;;;;;;;;;;;19.10;98.00;;;;;;2088879;28;1441;-60
2021/06/24 02:33:09;;;;;;;;;;;19.20;98.10;;;;;;2078880;28;763;-60
2021/06/24 02:34:32;;;;;;;;;;;19.10;98.40;;;;;;2075631;28;710;-60
2021/06/24 02:35:55;;;;;;;;;;;19.10;98.10;;;;;;2076506;28;1727;-60
2021/06/24 02:37:17;;;;;;;;;;;19.10;98.10;;;;;;2088361;28;1861;-60
2021/06/24 02:38:55;;;;;;;;;;;19.10;98.10;;;;;;2097614;28;728;-60
2021/06/24 02:40:14;;;;;;;;;;;19.10;98.10;;;;;;2096848;28;763;-60
2021/06/24 02:41:35;;;;;;;;;;;19.10;98.10;;;;;;2093845;28;1404;-60
2021/06/24 02:42:56;;;;;;;;;;;19.10;98.10;;;;;;2096395;28;736;-60
2021/06/24 02:44:16;;;;;;;;;;;19.10;98.10;;;;;;2093715;28;761;-60
2021/06/24 02:45:35;;;;;;;;;;;19.20;98.20;;;;;;2097412;28;741;-60
2021/06/24 02:46:54;;;;;;;;;;;19.10;98.10;;;;;;2089424;28;774;-60
2021/06/24 02:48:15;;;;;;;;;;;19.10;98.10;;;;;;2093523;28;1031;-60
2021/06/24 02:49:35;;;;;;;;;;;19.10;98.30;;;;;;2080383;28;1187;-61
2021/06/24 02:50:59;;;;;;;;;;;19.10;98.00;;;;;;2083681;28;1910;-60
2021/06/24 02:52:18;;;;;;;;;;;19.10;98.00;;;;;;2077737;28;810;-60
2021/06/24 02:53:41;;;;;;;;;;;19.10;98.00;;;;;;2088626;28;710;-60
2021/06/24 02:55:03;;;;;;;;;;;19.10;98.00;;;;;;2093881;28;985;-60
2021/06/24 02:56:38;;;;;;;;;;;19.10;98.00;;;;;;2088174;28;1466;-60
2021/06/24 02:58:01;;;;;;;;;;;19.10;98.00;;;;;;2097413;28;1898;-60
2021/06/24 02:59:35;;;;;;;;;;;19.10;98.00;;;;;;2097768;28;1019;-60
2021/06/24 03:00:56;;;;;;;;;;;19.10;98.00;;;;;;2089030;28;777;-60
2021/06/24 03:02:35;;;;;;;;;;;19.10;98.00;;;;;;2088477;28;695;-60
2021/06/24 03:03:54;;;;;;;;;;;19.10;98.30;;;;;;2088766;28;712;-60
2021/06/24 03:05:15;;;;;;;;;;;19.10;98.10;;;;;;2094681;28;1703;-59
2021/06/24 03:06:35;;;;;;;;;;;19.10;98.10;;;;;;2087061;28;1480;-60
2021/06/24 03:07:56;;;;;;;;;;;19.10;98.10;;;;;;2088401;28;1141;-60
2021/06/24 03:09:36;;;;;;;;;;;19.10;98.20;;;;;;2089518;28;1268;-60
2021/06/24 03:10:56;;;;;;;;;;;19.10;98.50;;;;;;2085537;28;976;-61
2021/06/24 03:12:15;;;;;;;;;;;19.10;98.30;;;;;;2083064;28;1578;-60
2021/06/24 03:13:37;;;;;;;;;;;19.10;98.30;;;;;;2080504;28;738;-60
2021/06/24 03:14:57;;;;;;;;;;;19.10;98.30;;;;;;2090558;28;715;-60
2021/06/24 03:16:16;;;;;;;;;;;19.10;98.40;;;;;;2087528;28;1959;-60
2021/06/24 03:17:36;;;;;;;;;;;19.10;98.40;;;;;;2089797;28;770;-60
2021/06/24 03:18:55;;;;;;;;;;;19.10;98.50;;;;;;2088202;28;1011;-60
2021/06/24 03:20:15;;;;;;;;;;;19.10;98.50;;;;;;2097248;28;1020;-59
2021/06/24 03:21:35;;;;;;;;;;;19.10;98.90;;;;;;2096955;28;1459;-60
2021/06/24 03:22:58;;;;;;;;;;;19.10;98.70;;;;;;2077443;28;968;-60
2021/06/24 03:24:17;;;;;;;;;;;19.10;98.70;;;;;;2088561;28;1205;-60
2021/06/24 03:25:38;;;;;;;;;;;19.10;98.70;;;;;;2094073;28;807;-60
2021/06/24 03:26:58;;;;;;;;;;;19.10;99.00;;;;;;2082846;28;797;-59
2021/06/24 03:28:18;;;;;;;;;;;19.10;98.80;;;;;;2085709;28;752;-60
2021/06/24 03:29:47;;;;;;;;;;;19.10;98.70;;;;;;2078655;28;729;-59
2021/06/24 03:31:07;;;;;;;;;;;19.10;98.70;;;;;;2087097;28;1438;-61
2021/06/24 03:32:28;;;;;;;;;;;19.10;98.90;;;;;;2085465;28;729;-61
2021/06/24 03:33:48;;;;;;;;;;;19.10;98.60;;;;;;2077639;28;753;-60
2021/06/24 03:35:08;;;;;;;;;;;19.10;98.90;;;;;;2090891;28;758;-61
2021/06/24 03:36:30;;;;;;;;;;;19.10;99.00;;;;;;2093962;28;1608;-60
2021/06/24 03:37:50;;;;;;;;;;;19.10;98.60;;;;;;2094777;28;1975;-60
2021/06/24 03:39:09;;;;;;;;;;;19.10;98.90;;;;;;2095533;28;693;-60
2021/06/24 03:40:30;;;;;;;;;;;19.10;98.80;;;;;;2098785;28;761;-60
2021/06/24 03:41:55;;;;;;;;;;;19.10;98.90;;;;;;2090075;28;1478;-60
2021/06/24 03:43:15;;;;;;;;;;;19.10;99.00;;;;;;2092860;28;714;-60
2021/06/24 03:44:35;;;;;;;;;;;19.10;99.00;;;;;;2086149;28;2035;-61
2021/06/24 03:45:54;;;;;;;;;;;19.10;99.10;;;;;;2087031;28;1922;-60
2021/06/24 03:47:15;;;;;;;;;;;19.10;99.10;;;;;;2085159;28;1215;-60
2021/06/24 03:48:35;;;;;;;;;;;19.10;99.10;;;;;;2095028;28;1106;-60
2021/06/24 03:50:07;;;;;;;;;;;19.10;99.10;;;;;;2089036;28;1215;-60
2021/06/24 03:51:26;;;;;;;;;;;19.10;99.20;;;;;;2085722;28;1419;-60
2021/06/24 03:52:50;;;;;;;;;;;19.10;99.20;;;;;;2092114;28;1179;-60
2021/06/24 03:54:09;;;;;;;;;;;19.10;99.50;;;;;;2092111;28;1161;-60
2021/06/24 03:55:44;;;;;;;;;;;19.10;99.60;;;;;;2086663;28;1229;-60
2021/06/24 03:57:32;;;;;;;;;;;19.10;99.20;;;;;;2089165;28;1662;-60
2021/06/24 03:59:03;;;;;;;;;;;19.10;99.30;;;;;;2098684;28;1567;-60
2021/06/24 04:00:23;;;;;;;;;;;19.10;99.40;;;;;;2090297;28;1316;-61
2021/06/24 04:01:42;;;;;;;;;;;19.10;99.70;;;;;;2094639;28;1378;-60
2021/06/24 04:03:03;;;;;;;;;;;19.10;99.40;;;;;;2091821;28;1658;-60
2021/06/24 04:04:32;;;;;;;;;;;19.10;99.60;;;;;;2086201;28;1385;-61
2021/06/24 04:05:51;;;;;;;;;;;19.10;99.50;;;;;;2084054;28;1150;-60
2021/06/24 04:07:12;;;;;;;;;;;19.10;99.90;;;;;;2080600;28;1475;-60
2021/06/24 04:08:32;;;;;;;;;;;19.10;99.60;;;;;;2088906;28;1251;-60
2021/06/24 04:09:52;;;;;;;;;;;19.10;99.60;;;;;;2082377;28;901;-60
2021/06/24 04:11:12;;;;;;;;;;;19.10;99.60;;;;;;2091205;28;1349;-60
2021/06/24 04:12:35;;;;;;;;;;;19.10;99.70;;;;;;2097748;28;1130;-60
2021/06/24 04:14:16;;;;;;;;;;;19.10;99.60;;;;;;2087534;28;1258;-60
2021/06/24 04:16:02;;;;;;;;;;;19.10;99.60;;;;;;2092617;28;1414;-60
2021/06/24 04:17:22;;;;;;;;;;;19.10;99.50;;;;;;2089642;28;1693;-60
2021/06/24 04:18:44;;;;;;;;;;;19.10;99.50;;;;;;2085599;28;1260;-60
2021/06/24 04:20:04;;;;;;;;;;;19.10;99.50;;;;;;2084875;28;1351;-60
2021/06/24 04:21:27;;;;;;;;;;;19.10;99.50;;;;;;2096135;28;1405;-60
2021/06/24 04:22:47;;;;;;;;;;;19.10;99.50;;;;;;2097722;28;1355;-60
2021/06/24 04:24:13;;;;;;;;;;;19.10;99.60;;;;;;2096197;28;1202;-60
2021/06/24 04:25:33;;;;;;;;;;;19.10;99.60;;;;;;2098731;28;1194;-60
2021/06/24 04:26:55;;;;;;;;;;;19.10;99.60;;;;;;2087021;28;1464;-60
2021/06/24 04:28:17;;;;;;;;;;;19.10;99.60;;;;;;2086126;28;1464;-60
2021/06/24 04:29:50;;;;;;;;;;;19.10;99.60;;;;;;2086944;28;1672;-60
2021/06/24 04:31:10;;;;;;;;;;;19.10;99.60;;;;;;2084777;28;1401;-60
2021/06/24 04:32:29;;;;;;;;;;;19.10;99.60;;;;;;2083657;28;1123;-60
2021/06/24 04:33:49;;;;;;;;;;;19.10;99.60;;;;;;2082649;28;1179;-60
2021/06/24 04:35:23;;;;;;;;;;;19.10;99.60;;;;;;2095266;28;1181;-60
2021/06/24 04:36:44;;;;;;;;;;;19.10;99.60;;;;;;2077521;28;1528;-62
2021/06/24 04:38:08;;;;;;;;;;;19.10;99.40;;;;;;2086889;28;1940;-60
2021/06/24 04:39:28;;;;;;;;;;;19.10;99.80;;;;;;2097159;28;1142;-60
2021/06/24 04:40:48;;;;;;;;;;;19.00;99.70;;;;;;2092875;28;1198;-60
2021/06/24 04:42:08;;;;;;;;;;;19.00;99.50;;;;;;2093052;28;1195;-61
2021/06/24 04:43:35;;;;;;;;;;;18.90;99.90;;;;;;2087930;28;1204;-60
2021/06/24 04:44:55;;;;;;;;;;;18.90;99.90;;;;;;2093494;28;1100;-60
2021/06/24 04:46:15;;;;;;;;;;;18.90;99.90;;;;;;2089950;28;1416;-60
2021/06/24 04:47:34;;;;;;;;;;;18.90;99.90;;;;;;2094255;28;1127;-60
2021/06/24 04:48:54;;;;;;;;;;;18.90;99.90;;;;;;2087428;28;1194;-60
2021/06/24 04:50:33;;;;;;;;;;;18.90;99.90;;;;;;2095193;28;1067;-60
2021/06/24 04:51:52;;;;;;;;;;;18.90;99.90;;;;;;2098644;28;1436;-60
2021/06/24 04:53:41;;;;;;;;;;;19.00;99.90;;;;;;2092892;28;1252;-59
2021/06/24 04:55:06;;;;;;;;;;;19.00;99.90;;;;;;2096251;28;1037;-60
2021/06/24 04:56:28;;;;;;;;;;;19.00;99.90;;;;;;2088346;28;1005;-60
2021/06/24 04:57:47;;;;;;;;;;;19.00;99.90;;;;;;2094689;28;1902;-60
2021/06/24 04:59:39;;;;;;;;;;;19.00;99.90;;;;;;2103243;28;1534;-60
2021/06/24 05:01:21;;;;;;;;;;;19.00;99.90;;;;;;2093579;28;1462;-60
2021/06/24 05:03:15;;;;;;;;;;;19.00;99.90;;;;;;2089277;28;1249;-60
2021/06/24 05:04:39;;;;;;;;;;;19.00;99.90;;;;;;2096289;28;1318;-60
2021/06/24 05:05:58;;;;;;;;;;;19.00;99.90;;;;;;2092391;28;1274;-60
2021/06/24 05:07:17;;;;;;;;;;;19.00;99.90;;;;;;2094347;28;1621;-60
2021/06/24 05:08:37;;;;;;;;;;;19.00;99.90;;;;;;2092275;28;1238;-60
2021/06/24 05:09:56;;;;;;;;;;;19.00;99.90;;;;;;2091012;28;1226;-60
2021/06/24 05:11:15;;;;;;;;;;;19.00;99.90;;;;;;2094886;28;1364;-60
2021/06/24 05:12:35;;;;;;;;;;;19.00;99.90;;;;;;2089801;28;897;-60
2021/06/24 05:13:54;;;;;;;;;;;19.00;99.90;;;;;;2091404;28;1158;-60
2021/06/24 05:15:14;;;;;;;;;;;19.00;99.90;;;;;;2087266;28;1037;-60
2021/06/24 05:16:34;;;;;;;;;;;19.00;99.90;;;;;;2091583;28;1631;-60
2021/06/24 05:17:53;;;;;;;;;;;19.00;99.90;;;;;;2095857;28;1894;-60
2021/06/24 05:19:13;;;;;;;;;;;19.00;99.90;;;;;;2090561;28;1258;-60
2021/06/24 05:20:32;;;;;;;;;;;19.00;99.90;;;;;;2085112;28;1075;-60
2021/06/24 05:21:51;;;;;;;;;;;19.00;99.90;;;;;;2081619;28;1413;-60
2021/06/24 05:23:11;;;;;;;;;;;19.10;99.90;;;;;;2087460;28;1081;-60
2021/06/24 05:24:30;;;;;;;;;;;19.10;99.90;;;;;;2092823;28;1075;-61
2021/06/24 05:25:49;;;;;;;;;;;19.00;99.90;;;;;;2100697;28;1212;-61
2021/06/24 05:27:08;;;;;;;;;;;19.00;99.90;;;;;;2098540;28;1213;-60
2021/06/24 05:28:28;;;;;;;;;;;19.00;99.90;;;;;;2089383;28;957;-61
2021/06/24 05:29:47;;;;;;;;;;;19.00;99.90;;;;;;2090534;28;1412;-60
2021/06/24 05:31:07;;;;;;;;;;;18.90;99.90;;;;;;2090211;28;1371;-60
2021/06/24 05:32:26;;;;;;;;;;;18.90;99.90;;;;;;2093614;28;1032;-60
2021/06/24 05:33:45;;;;;;;;;;;18.90;99.90;;;;;;2096955;28;1170;-60
2021/06/24 05:35:05;;;;;;;;;;;18.90;99.90;;;;;;2094538;28;1186;-62
2021/06/24 05:36:24;;;;;;;;;;;18.90;99.90;;;;;;2098317;28;1280;-60
2021/06/24 05:37:43;;;;;;;;;;;18.90;99.90;;;;;;2091211;28;1976;-60
2021/06/24 05:39:02;;;;;;;;;;;19.00;99.90;;;;;;2092303;28;1239;-60
2021/06/24 05:40:22;;;;;;;;;;;19.00;99.90;;;;;;2097865;28;1385;-60
2021/06/24 05:41:41;;;;;;;;;;;19.00;99.90;;;;;;2099304;28;1499;-60
2021/06/24 05:43:00;;;;;;;;;;;19.00;99.90;;;;;;2096509;28;1283;-60
2021/06/24 05:44:20;;;;;;;;;;;19.00;99.90;;;;;;2090576;28;1162;-61
2021/06/24 05:45:39;;;;;;;;;;;19.00;99.90;;;;;;2093692;28;928;-62
2021/06/24 05:47:00;;;;;;;;;;;19.00;99.90;;;;;;2095650;28;1204;-61
2021/06/24 05:48:19;;;;;;;;;;;19.00;99.90;;;;;;2096216;28;1333;-62
2021/06/24 05:49:38;;;;;;;;;;;19.00;99.90;;;;;;2088194;28;1014;-62
2021/06/24 05:50:57;;;;;;;;;;;19.00;99.90;;;;;;2089029;28;1012;-62
2021/06/24 05:52:16;;;;;;;;;;;19.00;99.90;;;;;;2093737;28;1469;-62
2021/06/24 05:53:36;;;;;;;;;;;19.00;99.90;;;;;;2089502;28;1355;-61
2021/06/24 05:54:55;;;;;;;;;;;19.00;99.90;;;;;;2096048;28;1028;-61
2021/06/24 05:56:14;;;;;;;;;;;19.00;99.90;;;;;;2088023;28;1129;-62
2021/06/24 05:57:33;;;;;;;;;;;19.00;99.90;;;;;;2092334;28;1762;-61
2021/06/24 05:58:53;;;;;;;;;;;19.00;99.90;;;;;;2094902;28;1296;-60
2021/06/24 06:00:13;;;;;;;;;;;19.00;99.90;;;;;;2094221;28;1152;-62
2021/06/24 06:01:40;;;;;;;;;;;19.00;99.90;;;;;;2096322;28;1488;-62
2021/06/24 06:02:59;;;;;;;;;;;19.00;99.90;;;;;;2096473;28;1745;-62
2021/06/24 06:04:18;;;;;;;;;;;19.00;99.90;;;;;;2098982;28;1378;-62
2021/06/24 06:05:37;;;;;;;;;;;19.00;99.90;;;;;;2088567;28;1252;-61
2021/06/24 06:06:57;;;;;;;;;;;19.00;99.90;;;;;;2089843;28;1096;-61
2021/06/24 06:08:16;;;;;;;;;;;19.00;99.90;;;;;;2094458;28;1328;-61
2021/06/24 06:09:35;;;;;;;;;;;19.00;99.90;;;;;;2094614;28;932;-61
2021/06/24 06:10:54;;;;;;;;;;;19.00;99.90;;;;;;2091049;28;950;-61
2021/06/24 06:12:14;;;;;;;;;;;19.00;99.90;;;;;;2094753;28;1026;-62
2021/06/24 06:13:34;;;;;;;;;;;19.00;99.90;;;;;;2099099;28;1027;-61
2021/06/24 06:14:53;;;;;;;;;;;19.00;99.90;;;;;;2088584;28;1235;-60
2021/06/24 06:16:13;;;;;;;;;;;19.00;99.90;;;;;;2094586;28;1324;-62
2021/06/24 06:17:33;;;;;;;;;;;19.00;99.90;;;;;;2096347;28;1679;-62
2021/06/24 06:18:52;;;;;;;;;;;19.00;99.90;;;;;;2099462;28;1096;-61
2021/06/24 06:20:12;;;;;;;;;;;19.00;99.90;;;;;;2097817;28;1350;-62
2021/06/24 06:21:31;;;;;;;;;;;19.00;99.90;;;;;;2095693;28;1402;-62
2021/06/24 06:22:50;;;;;;;;;;;19.00;99.90;;;;;;2088819;28;1211;-61
2021/06/24 06:24:10;;;;;;;;;;;19.00;99.90;;;;;;2082115;28;1469;-61
2021/06/24 06:25:29;;;;;;;;;;;19.00;99.90;;;;;;2090544;28;1227;-62
2021/06/24 06:26:48;;;;;;;;;;;19.10;99.90;;;;;;2088888;28;1311;-61
2021/06/24 06:28:07;;;;;;;;;;;19.10;99.90;;;;;;2095520;28;1691;-61
2021/06/24 06:29:27;;;;;;;;;;;19.10;99.90;;;;;;2097942;28;970;-62
2021/06/24 06:30:47;;;;;;;;;;;19.10;99.90;;;;;;2092731;28;1416;-62
2021/06/24 06:32:07;;;;;;;;;;;19.00;99.90;;;;;;2093686;28;1284;-61
2021/06/24 06:33:26;;;;;;;;;;;19.00;99.90;;;;;;2097472;28;1310;-62
2021/06/24 06:34:45;;;;;;;;;;;19.10;99.90;;;;;;2097318;28;1119;-62
2021/06/24 06:36:04;;;;;;;;;;;19.10;99.90;;;;;;2096132;28;1340;-61
2021/06/24 06:37:23;;;;;;;;;;;19.10;99.90;;;;;;2096469;28;1387;-61
2021/06/24 06:38:42;;;;;;;;;;;19.10;99.90;;;;;;2096350;28;1977;-62
2021/06/24 06:40:01;;;;;;;;;;;19.10;99.90;;;;;;2087496;28;1294;-61
2021/06/24 06:41:21;;;;;;;;;;;19.10;99.90;;;;;;2086548;28;1456;-61
2021/06/24 06:42:40;;;;;;;;;;;19.10;99.90;;;;;;2089217;28;1079;-62
2021/06/24 06:44:00;;;;;;;;;;;19.10;99.90;;;;;;2092056;28;1302;-62
2021/06/24 06:45:21;;;;;;;;;;;19.10;99.90;;;;;;2085320;28;1401;-62
2021/06/24 06:46:41;;;;;;;;;;;19.10;99.90;;;;;;2082703;28;1390;-62
2021/06/24 06:48:00;;;;;;;;;;;19.10;99.90;;;;;;2093033;28;1335;-61
2021/06/24 06:49:19;;;;;;;;;;;19.10;99.90;;;;;;2093628;28;1051;-61
2021/06/24 06:50:39;;;;;;;;;;;19.10;99.90;;;;;;2093544;28;1575;-61
2021/06/24 06:51:58;;;;;;;;;;;19.00;99.90;;;;;;2084063;28;1386;-61
2021/06/24 06:53:17;;;;;;;;;;;19.00;99.90;;;;;;2086362;28;1735;-60
2021/06/24 06:54:36;;;;;;;;;;;19.00;99.90;;;;;;2090986;28;1162;-61
2021/06/24 06:55:56;;;;;;;;;;;18.90;99.90;;;;;;2094777;28;1125;-62
2021/06/24 06:57:15;;;;;;;;;;;18.80;99.90;;;;;;2088188;28;1413;-61
2021/06/24 06:58:34;;;;;;;;;;;18.80;99.90;;;;;;2090422;28;1968;-61
2021/06/24 06:59:53;;;;;;;;;;;18.90;99.90;;;;;;2094790;28;1284;-61
2021/06/24 07:01:13;;;;;;;;;;;18.90;99.90;;;;;;2094903;28;1499;-62
2021/06/24 07:02:32;;;;;;;;;;;18.90;99.90;;;;;;2098834;28;1089;-61
2021/06/24 07:03:52;;;;;;;;;;;18.90;99.90;;;;;;2097133;28;1428;-62
2021/06/24 07:05:11;;;;;;;;;;;18.90;99.90;;;;;;2098885;28;978;-62
2021/06/24 07:06:30;;;;;;;;;;;18.90;99.90;;;;;;2098027;28;1307;-61
2021/06/24 07:07:49;;;;;;;;;;;19.00;99.90;;;;;;2089178;28;1789;-60
2021/06/24 07:09:08;;;;;;;;;;;19.00;99.90;;;;;;2092925;28;1293;-61
2021/06/24 07:10:27;;;;;;;;;;;19.00;99.90;;;;;;2098814;28;1108;-61
2021/06/24 07:11:46;;;;;;;;;;;19.00;99.90;;;;;;2100155;28;1466;-62
2021/06/24 07:13:06;;;;;;;;;;;19.00;99.90;;;;;;2098427;28;1276;-61
2021/06/24 07:14:25;;;;;;;;;;;19.00;99.90;;;;;;2100615;28;1048;-61
2021/06/24 07:15:44;;;;;;;;;;;19.00;99.90;;;;;;2100819;28;1069;-62
2021/06/24 07:17:03;;;;;;;;;;;19.00;99.90;;;;;;2087725;28;1594;-61
2021/06/24 07:18:23;;;;;;;;;;;19.00;99.90;;;;;;2092895;28;1901;-61
2021/06/24 07:19:42;;;;;;;;;;;19.00;99.90;;;;;;2093426;28;1212;-61
2021/06/24 07:21:01;;;;;;;;;;;19.00;99.90;;;;;;2097591;28;1228;-61
2021/06/24 07:22:20;;;;;;;;;;;19.00;99.90;;;;;;2100616;28;1404;-61
2021/06/24 07:23:40;;;;;;;;;;;19.00;99.90;;;;;;2096454;28;1047;-61
2021/06/24 07:24:59;;;;;;;;;;;19.00;99.90;;;;;;2096773;28;1181;-62
2021/06/24 07:26:18;;;;;;;;;;;19.10;99.90;;;;;;2101386;28;1360;-61
2021/06/24 07:27:37;;;;;;;;;;;19.10;99.90;;;;;;2095217;28;1852;-61
2021/06/24 07:28:57;;;;;;;;;;;19.10;99.90;;;;;;2096593;28;1043;-62
2021/06/24 07:30:16;;;;;;;;;;;19.10;99.90;;;;;;2099982;28;1432;-61
2021/06/24 07:31:35;;;;;;;;;;;19.10;99.90;;;;;;2100653;28;1416;-60
2021/06/24 07:32:55;;;;;;;;;;;19.10;99.90;;;;;;2099667;28;1088;-60
2021/06/24 07:34:14;;;;;;;;;;;19.10;99.90;;;;;;2095085;28;1534;-60
2021/06/24 07:35:33;;;;;;;;;;;19.10;99.90;;;;;;2091785;28;1311;-61
2021/06/24 07:36:53;;;;;;;;;;;19.10;99.90;;;;;;2093003;28;1364;-61
2021/06/24 07:38:12;;;;;;;;;;;19.10;99.90;;;;;;2095086;28;1906;-61
2021/06/24 07:39:31;;;;;;;;;;;19.10;99.90;;;;;;2101295;28;1079;-61
2021/06/24 07:40:50;;;;;;;;;;;19.10;99.90;;;;;;2100475;28;1146;-61
2021/06/24 07:42:10;;;;;;;;;;;19.10;99.90;;;;;;2098720;28;1436;-61
2021/06/24 07:43:29;;;;;;;;;;;19.10;99.90;;;;;;2100683;28;1368;-61
2021/06/24 07:44:48;;;;;;;;;;;19.10;99.90;;;;;;2099758;28;1261;-61
2021/06/24 07:46:07;;;;;;;;;;;19.10;99.90;;;;;;2094944;28;1177;-62
2021/06/24 07:47:26;;;;;;;;;;;19.10;99.90;;;;;;2096301;28;1476;-61
2021/06/24 07:48:47;;;;;;;;;;;19.10;99.90;;;;;;2090207;28;1088;-59
2021/06/24 07:50:07;;;;;;;;;;;19.10;99.90;;;;;;2090542;28;1627;-61
2021/06/24 07:51:26;;;;;;;;;;;19.10;99.90;;;;;;2094339;28;1465;-61
2021/06/24 07:52:45;;;;;;;;;;;19.10;99.90;;;;;;2096662;28;1337;-60
2021/06/24 07:54:04;;;;;;;;;;;19.10;99.90;;;;;;2089172;28;1143;-59
2021/06/24 07:55:32;;;;;;;;;;;19.10;99.90;;;;;;2092588;28;1329;-61
2021/06/24 07:56:51;;;;;;;;;;;19.10;99.90;;;;;;2097253;28;1763;-60
2021/06/24 07:58:11;;;;;;;;;;;19.10;99.90;;;;;;2095718;28;1902;-61
2021/06/24 07:59:30;;;;;;;;;;;19.10;99.90;;;;;;2095422;28;1186;-61
2021/06/24 08:00:49;;;;;;;;;;;19.10;99.90;;;;;;2096669;28;1349;-60
2021/06/24 08:02:09;;;;;;;;;;;19.10;99.90;;;;;;2097834;28;1388;-61
2021/06/24 08:03:27;;;;;;;;;;;19.10;99.90;;;;;;2085124;28;1337;-62
2021/06/24 08:04:47;;;;;;;;;;;19.10;99.90;;;;;;2093392;28;1165;-60